createdAt,value
2022-12-03T00:01:07.786Z,97251.03
2022-12-03T00:06:34.329Z,97251.41
2022-12-03T00:11:55.478Z,97242.06
2022-12-03T00:17:17.576Z,97257.38
2022-12-03T00:22:38.546Z,97247.38
2022-12-03T00:27:59.284Z,97254.09
2022-12-03T00:33:20.856Z,97250.66
2022-12-03T00:38:41.685Z,97251.22
2022-12-03T00:44:03.203Z,97248.44
2022-12-03T00:49:23.637Z,97247.31
2022-12-03T00:54:45.447Z,97256.56
2022-12-03T01:00:06.441Z,97254.03
2022-12-03T01:05:28.041Z,97247.78
2022-12-03T01:10:48.919Z,97245.22
2022-12-03T01:16:09.970Z,97250.50
2022-12-03T01:21:30.388Z,97245.63
2022-12-03T01:26:51.574Z,97246.66
2022-12-03T01:32:19.722Z,97241.50
2022-12-03T01:37:40.366Z,97245.41
2022-12-03T01:43:01.338Z,97247.25
2022-12-03T01:48:22.573Z,97249.09
2022-12-03T01:53:44.389Z,97243.78
2022-12-03T01:59:05.135Z,97249.81
2022-12-03T02:04:26.322Z,97247.78
2022-12-03T02:09:47.206Z,97239.44
2022-12-03T02:15:09.190Z,97234.38
2022-12-03T02:20:31.211Z,97229.72
2022-12-03T02:25:52.128Z,97234.25
2022-12-03T02:31:13.057Z,97231.13
2022-12-03T02:36:34.343Z,97232.00
2022-12-03T02:42:13.729Z,97243.50
2022-12-03T02:47:36.593Z,97234.50
2022-12-03T02:52:58.360Z,97242.06
2022-12-03T02:58:19.663Z,97239.44
2022-12-03T03:03:40.597Z,97232.56
2022-12-03T03:09:01.129Z,97221.53
2022-12-03T03:14:22.243Z,97224.75
2022-12-03T03:19:42.751Z,97224.44
2022-12-03T03:25:04.642Z,97217.81
2022-12-03T03:30:25.245Z,97221.75
2022-12-03T03:35:47.576Z,97221.63
2022-12-03T03:41:09.315Z,97216.91
2022-12-03T03:46:30.085Z,97217.84
2022-12-03T03:51:51.389Z,97215.41
2022-12-03T03:57:12.252Z,97209.84
2022-12-03T04:02:33.316Z,97215.09
2022-12-03T04:07:53.715Z,97221.81
2022-12-03T04:13:14.432Z,97224.91
2022-12-03T04:18:44.448Z,97222.56
2022-12-03T04:24:06.073Z,97219.75
2022-12-03T04:29:26.895Z,97214.75
2022-12-03T04:35:11.045Z,97217.69
2022-12-03T04:41:04.087Z,97219.44
2022-12-03T04:46:24.988Z,97215.88
2022-12-03T04:51:45.574Z,97219.97
2022-12-03T04:57:06.792Z,97219.16
2022-12-03T05:02:27.374Z,97210.19
2022-12-03T05:07:48.359Z,97212.34
2022-12-03T05:13:09.167Z,97215.97
2022-12-03T05:18:29.866Z,97217.91
2022-12-03T05:23:50.799Z,97224.84
2022-12-03T05:29:11.483Z,97221.53
2022-12-03T05:34:32.349Z,97220.63
2022-12-03T05:39:53.418Z,97219.97
2022-12-03T05:45:14.274Z,97224.25
2022-12-03T05:50:36.286Z,97220.66
2022-12-03T05:56:07.965Z,97220.56
2022-12-03T06:01:28.648Z,97217.69
2022-12-03T06:06:49.984Z,97212.00
2022-12-03T06:12:10.435Z,97217.06
2022-12-03T06:17:31.281Z,97222.09
2022-12-03T06:22:52.521Z,97219.84
2022-12-03T06:28:12.977Z,97220.88
2022-12-03T06:33:33.851Z,97213.63
2022-12-03T06:38:54.750Z,97222.44
2022-12-03T06:44:15.675Z,97217.81
2022-12-03T06:49:36.711Z,97224.97
2022-12-03T06:54:57.550Z,97211.25
2022-12-03T07:00:18.752Z,97215.59
2022-12-03T07:05:39.245Z,97218.28
2022-12-03T07:11:00.185Z,97209.03
2022-12-03T07:16:21.127Z,97204.53
2022-12-03T07:21:41.895Z,97211.22
2022-12-03T07:27:02.481Z,97206.28
2022-12-03T07:32:23.155Z,97209.97
2022-12-03T07:37:43.885Z,97201.34
2022-12-03T07:43:05.108Z,97198.84
2022-12-03T07:48:25.873Z,97210.97
2022-12-03T07:53:46.828Z,97206.06
2022-12-03T07:59:07.548Z,97213.91
2022-12-03T08:04:28.699Z,97219.34
2022-12-03T08:09:49.677Z,97208.66
2022-12-03T08:15:13.928Z,97204.78
2022-12-03T08:20:37.750Z,97202.88
2022-12-03T08:26:02.175Z,97198.09
2022-12-03T08:31:32.436Z,97192.13
2022-12-03T08:37:02.058Z,97187.16
2022-12-03T08:42:42.281Z,97201.59
2022-12-03T08:48:05.941Z,97226.69
2022-12-03T08:53:31.388Z,97224.69
2022-12-03T08:58:53.992Z,97222.16
2022-12-03T09:04:14.540Z,97220.88
2022-12-03T09:09:35.863Z,97224.97
2022-12-03T09:14:57.054Z,97224.59
2022-12-03T09:20:18.113Z,97218.53
2022-12-03T09:25:38.794Z,97207.00
2022-12-03T09:30:59.646Z,97219.50
2022-12-03T09:36:20.626Z,97211.34
2022-12-03T09:41:41.197Z,97204.28
2022-12-03T09:47:02.691Z,97207.00
2022-12-03T09:52:28.101Z,97215.34
2022-12-03T09:57:48.874Z,97217.00
2022-12-03T10:03:14.032Z,97204.97
2022-12-03T10:08:34.850Z,97214.81
2022-12-03T10:13:56.791Z,97187.69
2022-12-03T10:19:21.262Z,97189.63
2022-12-03T10:24:41.905Z,97197.78
2022-12-03T10:30:04.553Z,97193.66
2022-12-03T10:35:35.844Z,97195.47
2022-12-03T10:40:56.565Z,97194.63
2022-12-03T10:46:18.808Z,97194.34
2022-12-03T10:51:39.769Z,97199.75
2022-12-03T10:57:01.812Z,97188.69
2022-12-03T11:02:24.299Z,97177.25
2022-12-03T11:07:45.265Z,97166.13
2022-12-03T11:13:24.756Z,97166.81
2022-12-03T11:18:54.839Z,97172.50
2022-12-03T11:24:18.444Z,97166.47
2022-12-03T11:29:59.462Z,97164.94
2022-12-03T11:35:23.144Z,97150.91
2022-12-03T11:41:03.883Z,97154.41
2022-12-03T11:46:27.740Z,97142.63
2022-12-03T11:51:49.016Z,97129.81
2022-12-03T11:57:43.425Z,97133.81
2022-12-03T12:03:04.105Z,97129.41
2022-12-03T12:08:24.864Z,97125.09
2022-12-03T12:13:59.368Z,97118.53
2022-12-03T12:19:29.303Z,97112.78
2022-12-03T12:24:55.074Z,97116.03
2022-12-03T12:30:17.514Z,97107.25
2022-12-03T12:35:38.338Z,97113.75
2022-12-03T12:41:02.478Z,97107.97
2022-12-03T12:46:47.196Z,97113.66
2022-12-03T12:52:06.030Z,97114.59
2022-12-03T12:57:26.846Z,97107.00
2022-12-03T13:02:54.619Z,97104.41
2022-12-03T13:08:23.761Z,97099.03
2022-12-03T13:13:44.747Z,97103.38
2022-12-03T13:19:13.222Z,97098.19
2022-12-03T13:24:39.615Z,97092.56
2022-12-03T13:30:08.966Z,97092.22
2022-12-03T13:35:35.308Z,97096.72
2022-12-03T13:41:01.407Z,97095.50
2022-12-03T13:46:22.178Z,97096.41
2022-12-03T13:51:44.286Z,97096.34
2022-12-03T13:57:08.619Z,97094.88
2022-12-03T14:02:29.312Z,97092.91
2022-12-03T14:07:50.097Z,97089.59
2022-12-03T14:13:10.831Z,97078.75
2022-12-03T14:18:31.902Z,97076.59
2022-12-03T14:23:52.459Z,97079.34
2022-12-03T14:29:13.273Z,97078.81
2022-12-03T14:34:34.088Z,97083.56
2022-12-03T14:39:55.608Z,97070.84
2022-12-03T14:45:16.292Z,97076.09
2022-12-03T14:50:36.959Z,97074.81
2022-12-03T14:55:59.128Z,97086.78
2022-12-03T15:01:20.167Z,97081.31
2022-12-03T15:06:40.971Z,97084.22
2022-12-03T15:12:01.800Z,97078.16
2022-12-03T15:17:30.900Z,97091.16
2022-12-03T15:22:52.053Z,97082.94
2022-12-03T15:28:13.074Z,97071.13
2022-12-03T15:33:34.027Z,97078.47
2022-12-03T15:38:54.741Z,97076.53
2022-12-03T15:44:15.769Z,97083.97
2022-12-03T15:49:36.632Z,97074.06
2022-12-03T15:54:57.559Z,97079.88
2022-12-03T16:00:18.159Z,97079.81
2022-12-03T16:05:41.043Z,97066.28
2022-12-03T16:11:01.602Z,97072.91
2022-12-03T16:16:22.683Z,97062.97
2022-12-03T16:21:43.312Z,97060.59
2022-12-03T16:27:04.651Z,97065.94
2022-12-03T16:32:25.342Z,97068.28
2022-12-03T16:37:45.832Z,97070.59
2022-12-03T16:43:08.517Z,97069.03
2022-12-03T16:48:29.902Z,97059.22
2022-12-03T16:53:50.664Z,97061.56
2022-12-03T16:59:11.416Z,97054.31
2022-12-03T17:04:32.106Z,97058.16
2022-12-03T17:09:52.907Z,97053.56
2022-12-03T17:15:14.202Z,97055.72
2022-12-03T17:20:35.723Z,97051.59
2022-12-03T17:25:56.498Z,97049.94
2022-12-03T17:31:17.872Z,97043.63
2022-12-03T17:42:22.469Z,97052.00
2022-12-03T18:46:02.066Z,97020.47
2022-12-03T18:51:24.760Z,97022.19
2022-12-03T18:56:45.706Z,97026.16
2022-12-03T19:02:07.863Z,97020.03
2022-12-03T19:07:28.592Z,97024.25
2022-12-03T19:12:49.550Z,97024.91
2022-12-03T19:18:10.455Z,97033.06
2022-12-03T19:23:31.208Z,97033.28
2022-12-03T19:28:53.626Z,97026.56
2022-12-03T19:34:14.653Z,97034.19
2022-12-03T19:39:35.260Z,97028.34
2022-12-03T19:44:56.201Z,97029.91
2022-12-03T19:50:22.508Z,97023.94
2022-12-03T19:55:44.494Z,97027.06
2022-12-03T20:01:19.102Z,97009.13
2022-12-03T20:06:39.761Z,97008.69
2022-12-03T20:12:00.585Z,96996.78
2022-12-03T20:17:21.779Z,96994.31
2022-12-03T20:22:42.746Z,96991.75
2022-12-03T20:28:03.543Z,97009.38
2022-12-03T20:33:24.436Z,96997.44
2022-12-03T20:38:45.330Z,97003.00
2022-12-03T20:44:07.922Z,96993.56
2022-12-03T20:49:28.937Z,96994.09
2022-12-03T20:54:49.713Z,96986.75
2022-12-03T21:00:10.490Z,96997.34
2022-12-03T21:05:31.070Z,96992.44
2022-12-03T21:10:51.797Z,96989.31
2022-12-03T21:16:16.872Z,96993.47
2022-12-03T21:21:37.666Z,96993.13
2022-12-03T21:26:59.802Z,96997.53
2022-12-03T21:32:20.302Z,96997.84
2022-12-03T21:37:41.057Z,96990.56
2022-12-03T21:43:01.899Z,96993.34
2022-12-03T21:48:22.864Z,96986.28
2022-12-03T21:53:43.699Z,96993.56
2022-12-03T21:59:04.296Z,96997.38
2022-12-03T22:04:24.875Z,96990.06
2022-12-03T22:09:45.626Z,96988.31
2022-12-03T22:15:06.724Z,96983.16
2022-12-03T22:20:29.372Z,96978.00
2022-12-03T22:26:00.900Z,96980.97
2022-12-03T22:31:21.773Z,96978.78
2022-12-03T22:36:42.644Z,96970.94
2022-12-03T22:42:03.467Z,96958.53
2022-12-03T22:47:24.336Z,96950.34
2022-12-03T22:52:45.091Z,96951.94
2022-12-03T22:58:06.425Z,96958.44
2022-12-03T23:03:27.215Z,96954.03
2022-12-03T23:08:48.583Z,96941.59
2022-12-03T23:14:09.201Z,96936.94
2022-12-03T23:19:30.200Z,96940.53
2022-12-03T23:24:50.685Z,96937.97
2022-12-03T23:30:12.124Z,96937.88
2022-12-03T23:35:33.023Z,96934.38
2022-12-03T23:40:53.991Z,96931.97
2022-12-03T23:46:19.388Z,96927.97
2022-12-03T23:51:40.310Z,96933.47
2022-12-03T23:57:01.092Z,96929.53
